North Stratford, New Hampshire
Current Conditions -  °F | °C
As of 6:15 AM on Friday 28 Nov 2014 (Local Time) from KCDA Reporting Station
Light Snow Light Snow  
Wind Chill: 22°   Ceiling: 1900
Heat Index: 22°   Visibility: 3mi
Dew Point: 19°   Wind: 3mph
Humidity: 87%   Direction: 250°WSW
Pressure: 30"   Gusts: NA
Location:  44.75°N, 71.63°W
Report Text: KCDA 281115Z AUTO 25003KT 3SM -SN OVC019 M05/M07 A3000 RMK AO2 T10551073
Loading
Personal Weather Stations






























Interactive Weather Map New forecast layout! Learn more

10-Day Weather Forecast

Advertisements
Track Severe Weather on mobile